Aviation Digital Data Service (ADDS)

Output produced by METARs form (2155 UTC 19 February 2018)
found at http://www.aviationweather.gov/adds/metars/
 
DRRN 192100Z VRB02KT 2000 DU NSC 30/M01 Q1008 NOSIG
TAF COR DRRN 191700Z 1918/2024 06006KT 3000 DU NSC 
     TEMPO 1918/1922 2000 
     BECMG 2002/2004 5000 
     TEMPO 2006/2009 3000
       
DRZA 191800Z 14010KT CAVOK 30/M02 Q1011
TAF DRZA 191700Z 1918/2018 10010KT 8000 NSC
       
DRRM 191800Z VRB02KT 0800 DU NSC 36/06 Q1010
DRRT 191800Z 18002KT 8000 NSC 34/M01 Q1009
DRZR 191800Z 04006KT CAVOK 32/M04 Q1010
TAF DRZR 191700Z 1918/2018 06007KT 8000 NSC